Time;durP1;ratioP1;P1;durP2;ratioP2;P2;SDS_P1;SDS_P2;PMS_P1;PMS_P2;Temp;Humidity;BMP_temperature;BMP_pressure;BME280_temperature;BME280_humidity;BME280_pressure;Samples;Min_cycle;Max_cycle;Signal;HPM_P1;HPM_P2
2023/05/11 00:01:12;;;;;;;7.47;4.20;;;13.90;99.90;;;;;;6195530;23;20409;-85
2023/05/11 00:03:39;;;;;;;8.80;4.10;;;14.00;99.90;;;;;;6193719;23;20406;-84
2023/05/11 00:06:06;;;;;;;6.27;4.30;;;14.00;99.90;;;;;;6192456;23;20385;-81
2023/05/11 00:08:33;;;;;;;4.90;4.50;;;14.00;99.90;;;;;;6190863;23;20434;-82
2023/05/11 00:11:00;;;;;;;4.00;3.60;;;14.00;99.90;;;;;;6192200;23;20372;-85
2023/05/11 00:13:28;;;;;;;6.57;4.30;;;14.00;99.90;;;;;;6191572;23;20396;-82
2023/05/11 00:15:55;;;;;;;4.47;4.07;;;13.90;99.90;;;;;;6190567;23;20435;-85
2023/05/11 00:18:22;;;;;;;6.80;4.37;;;13.90;99.90;;;;;;6199924;23;20471;-82
2023/05/11 00:20:49;;;;;;;7.47;4.05;;;13.80;99.90;;;;;;6202384;23;20462;-84
2023/05/11 00:23:15;;;;;;;8.60;4.93;;;13.70;99.90;;;;;;6203723;23;20439;-78
2023/05/11 00:25:42;;;;;;;8.40;4.20;;;13.60;99.90;;;;;;6206970;23;20168;-80
2023/05/11 00:28:10;;;;;;;8.17;4.97;;;13.50;99.90;;;;;;6207540;23;20242;-80
2023/05/11 00:30:39;;;;;;;3.60;3.30;;;13.60;99.90;;;;;;6207186;23;20417;-79
2023/05/11 00:33:06;;;;;;;5.30;4.50;;;13.50;99.90;;;;;;6211710;22;20464;-78
2023/05/11 00:35:33;;;;;;;5.05;4.53;;;13.30;99.90;;;;;;6222488;22;20441;-80
2023/05/11 00:38:00;;;;;;;4.32;3.65;;;13.40;99.90;;;;;;6230133;22;20199;-82
2023/05/11 00:40:26;;;;;;;4.50;3.80;;;13.40;99.90;;;;;;6225323;22;20210;-79
2023/05/11 00:42:54;;;;;;;6.05;4.80;;;13.30;99.90;;;;;;6201384;22;21717;-78
2023/05/11 00:45:21;;;;;;;8.43;4.45;;;13.30;99.90;;;;;;6232372;22;20229;-84
2023/05/11 00:47:48;;;;;;;6.22;4.25;;;13.20;99.90;;;;;;6219779;22;20242;-83
2023/05/11 00:50:17;;;;;;;4.18;3.78;;;13.20;99.90;;;;;;6222357;23;20195;-86
2023/05/11 00:52:46;;;;;;;5.28;4.28;;;13.10;99.90;;;;;;6227093;23;20194;-83
2023/05/11 00:55:13;;;;;;;5.95;5.28;;;13.20;99.90;;;;;;6236458;23;20206;-82
2023/05/11 00:57:40;;;;;;;7.93;4.82;;;13.10;99.90;;;;;;6240941;23;20172;-85
2023/05/11 01:00:08;;;;;;;5.25;4.40;;;13.00;99.90;;;;;;6228405;23;20207;-85
2023/05/11 01:02:35;;;;;;;9.27;4.93;;;13.10;99.90;;;;;;6221318;23;20621;-86
2023/05/11 01:05:02;;;;;;;4.80;4.40;;;13.00;99.90;;;;;;6218902;23;20188;-82
2023/05/11 01:07:52;;;;;;;5.03;4.45;;;13.00;99.90;;;;;;6218919;23;20210;-87
2023/05/11 01:10:40;;;;;;;5.93;4.85;;;13.00;99.90;;;;;;6219092;23;20172;-85
2023/05/11 01:13:29;;;;;;;6.13;4.03;;;13.00;99.90;;;;;;6219498;23;20175;-86
2023/05/11 01:16:00;;;;;;;4.88;4.18;;;13.00;99.90;;;;;;6194009;23;20207;-88
2023/05/11 01:18:42;;;;;;;6.53;4.80;;;13.00;99.90;;;;;;6218485;23;20731;-82
2023/05/11 01:21:10;;;;;;;6.50;4.72;;;13.10;99.90;;;;;;6191643;23;20168;-81
2023/05/11 01:24:09;;;;;;;5.90;5.07;;;13.10;99.90;;;;;;6192967;23;20191;-81
2023/05/11 01:26:50;;;;;;;7.18;5.90;;;13.10;99.90;;;;;;6159318;23;20179;-83
2023/05/11 01:29:32;;;;;;;6.75;5.22;;;13.10;99.90;;;;;;6218212;23;20182;-85
2023/05/11 01:32:05;;;;;;;8.77;4.97;;;13.20;99.90;;;;;;6224320;23;20168;-85
2023/05/11 01:34:35;;;;;;;5.68;4.82;;;13.10;99.90;;;;;;6221957;23;20191;-82
2023/05/11 01:37:10;;;;;;;5.55;4.55;;;13.10;99.90;;;;;;6230040;23;20179;-82
2023/05/11 01:39:49;;;;;;;8.10;4.45;;;13.10;99.90;;;;;;6233163;23;20164;-82
2023/05/11 01:42:23;;;;;;;5.88;4.40;;;13.10;99.90;;;;;;6225320;23;20168;-81
2023/05/11 01:44:53;;;;;;;6.88;5.30;;;13.10;99.90;;;;;;6222549;23;20168;-83
2023/05/11 01:47:25;;;;;;;8.43;4.40;;;13.10;99.90;;;;;;6220781;23;20212;-81
2023/05/11 01:49:53;;;;;;;8.80;5.15;;;13.10;99.90;;;;;;6219370;23;20196;-81
2023/05/11 01:52:24;;;;;;;7.50;4.55;;;13.10;99.90;;;;;;6192693;23;20188;-81
2023/05/11 01:54:53;;;;;;;6.50;4.93;;;13.10;99.90;;;;;;6218665;23;20180;-84
2023/05/11 01:57:21;;;;;;;10.65;5.40;;;12.90;99.90;;;;;;6191472;23;20184;-83
2023/05/11 01:59:52;;;;;;;7.68;4.93;;;13.00;99.90;;;;;;6218663;23;20241;-83
2023/05/11 02:02:20;;;;;;;5.43;4.55;;;13.00;99.90;;;;;;6192345;23;20207;-84
2023/05/11 02:04:48;;;;;;;6.57;4.82;;;12.90;99.90;;;;;;6219606;23;20423;-83
2023/05/11 02:07:17;;;;;;;6.13;4.90;;;12.90;99.90;;;;;;6218569;23;20175;-82
2023/05/11 02:09:47;;;;;;;6.50;4.55;;;12.90;99.90;;;;;;6219637;23;20187;-80
2023/05/11 02:12:18;;;;;;;6.95;4.60;;;12.80;99.90;;;;;;6218079;23;20423;-81
2023/05/11 02:14:46;;;;;;;9.77;5.45;;;12.90;99.90;;;;;;6218261;23;20543;-81
2023/05/11 02:17:15;;;;;;;7.07;5.68;;;12.90;99.90;;;;;;6191036;23;20252;-82
2023/05/11 02:19:43;;;;;;;4.70;4.18;;;12.90;99.90;;;;;;6219266;23;20184;-84
2023/05/11 02:22:11;;;;;;;6.00;4.63;;;12.90;99.90;;;;;;6218689;23;20184;-81
2023/05/11 02:24:40;;;;;;;7.18;5.40;;;13.10;99.90;;;;;;6192749;23;20206;-83
2023/05/11 02:27:07;;;;;;;6.78;5.22;;;12.80;99.90;;;;;;6218828;23;20222;-80
2023/05/11 02:29:34;;;;;;;7.65;5.20;;;12.90;99.90;;;;;;6219586;23;20183;-83
2023/05/11 02:32:16;;;;;;;6.00;5.15;;;12.90;99.90;;;;;;6219489;23;20496;-84
2023/05/11 02:34:53;;;;;;;8.23;6.15;;;12.90;99.90;;;;;;6219616;23;20174;-82
2023/05/11 02:37:24;;;;;;;7.82;5.35;;;12.80;99.90;;;;;;6220706;23;20192;-82
2023/05/11 02:39:59;;;;;;;11.18;5.60;;;12.90;99.90;;;;;;6194371;23;20195;-85
2023/05/11 02:42:29;;;;;;;5.35;4.88;;;12.80;99.90;;;;;;6222770;23;20178;-83
2023/05/11 02:45:03;;;;;;;10.50;5.93;;;12.80;99.90;;;;;;6222052;23;20222;-88
2023/05/11 02:47:33;;;;;;;6.57;5.43;;;12.90;99.90;;;;;;6218802;23;20208;-84
2023/05/11 02:50:03;;;;;;;6.10;4.95;;;12.80;99.90;;;;;;6224333;23;20195;-82
2023/05/11 02:52:31;;;;;;;9.85;5.60;;;12.80;99.90;;;;;;6227683;23;20214;-82
2023/05/11 02:55:01;;;;;;;8.90;5.40;;;12.80;99.90;;;;;;6224216;23;20183;-87
2023/05/11 02:57:28;;;;;;;5.90;4.82;;;12.80;99.90;;;;;;6225863;23;20226;-83
2023/05/11 02:59:55;;;;;;;8.05;6.68;;;12.70;99.90;;;;;;6222613;23;20184;-84
2023/05/11 03:02:22;;;;;;;12.57;5.93;;;12.70;99.90;;;;;;6224428;23;20206;-86
2023/05/11 03:04:49;;;;;;;8.55;5.72;;;12.70;99.90;;;;;;6229134;23;20171;-80
2023/05/11 03:07:16;;;;;;;8.55;5.75;;;12.70;99.90;;;;;;6237034;23;20194;-80
2023/05/11 03:09:43;;;;;;;6.95;5.72;;;12.70;99.90;;;;;;6239145;23;20496;-81
2023/05/11 03:12:10;;;;;;;5.85;5.25;;;12.80;99.90;;;;;;6238931;23;20167;-79
2023/05/11 03:14:38;;;;;;;6.85;5.35;;;12.60;99.90;;;;;;6228333;23;20475;-89
2023/05/11 03:17:05;;;;;;;5.55;5.03;;;12.50;99.90;;;;;;6199177;23;20188;-83
2023/05/11 03:19:33;;;;;;;6.43;4.65;;;12.50;99.90;;;;;;6220543;23;20211;-86
2023/05/11 03:22:01;;;;;;;7.30;5.30;;;12.60;99.90;;;;;;6193627;23;20215;-83
2023/05/11 03:24:30;;;;;;;6.18;5.07;;;12.60;99.90;;;;;;6227361;23;20509;-80
2023/05/11 03:26:58;;;;;;;7.22;6.53;;;12.50;99.90;;;;;;6210865;23;20195;-80
2023/05/11 03:29:26;;;;;;;8.52;5.82;;;12.40;99.90;;;;;;6236563;23;20210;-82
2023/05/11 03:31:54;;;;;;;9.80;5.85;;;12.20;99.90;;;;;;6224972;23;20188;-85
2023/05/11 03:34:21;;;;;;;8.60;6.68;;;12.20;99.90;;;;;;6218225;23;20192;-85
2023/05/11 03:36:49;;;;;;;10.52;6.75;;;12.30;99.90;;;;;;6218968;23;20470;-80
2023/05/11 03:39:17;;;;;;;5.72;5.13;;;12.20;99.90;;;;;;6218062;23;20188;-80
2023/05/11 03:41:49;;;;;;;8.88;5.65;;;12.20;99.90;;;;;;6218806;23;20536;-80
2023/05/11 03:44:19;;;;;;;9.40;6.43;;;12.10;99.90;;;;;;6218561;23;20613;-83
2023/05/11 03:46:47;;;;;;;7.63;6.15;;;12.00;99.90;;;;;;6224925;23;20195;-82
2023/05/11 03:49:14;;;;;;;7.82;5.90;;;12.10;99.90;;;;;;6239487;23;20207;-79
2023/05/11 03:51:42;;;;;;;13.27;6.03;;;12.00;99.90;;;;;;6240854;23;20187;-80
2023/05/11 03:54:09;;;;;;;10.07;6.90;;;12.10;99.90;;;;;;6233108;23;20427;-83
2023/05/11 03:56:37;;;;;;;8.45;6.80;;;12.00;99.90;;;;;;6225131;23;20210;-85
2023/05/11 03:59:04;;;;;;;7.97;5.57;;;12.00;99.90;;;;;;6219743;23;20206;-86
2023/05/11 04:01:31;;;;;;;6.80;6.20;;;12.00;99.90;;;;;;6219860;23;20184;-84
2023/05/11 04:03:58;;;;;;;11.00;5.70;;;11.90;99.90;;;;;;6221290;23;20175;-83
2023/05/11 04:06:26;;;;;;;6.60;4.93;;;11.80;99.90;;;;;;6218576;23;20188;-80
2023/05/11 04:08:52;;;;;;;10.02;6.05;;;11.80;99.90;;;;;;6218078;23;20199;-81
2023/05/11 04:11:21;;;;;;;7.38;6.35;;;11.90;99.90;;;;;;6219556;23;20187;-85
2023/05/11 04:13:47;;;;;;;6.63;5.93;;;12.00;99.90;;;;;;6218745;23;20239;-84
2023/05/11 04:16:14;;;;;;;11.90;5.95;;;11.90;99.90;;;;;;6217377;23;20504;-81
2023/05/11 04:18:41;;;;;;;7.25;5.68;;;12.00;99.90;;;;;;6192033;23;20191;-83
2023/05/11 04:21:08;;;;;;;9.32;6.63;;;11.90;99.90;;;;;;6218235;23;20191;-82
2023/05/11 04:23:35;;;;;;;11.73;7.00;;;12.00;99.90;;;;;;6218114;23;20222;-83
2023/05/11 04:26:02;;;;;;;10.63;6.65;;;12.10;99.90;;;;;;6219441;23;20214;-83
2023/05/11 04:28:29;;;;;;;9.30;6.47;;;12.20;99.90;;;;;;6217027;23;20203;-85
2023/05/11 04:30:56;;;;;;;7.50;5.38;;;12.20;99.90;;;;;;6219251;23;20508;-85
2023/05/11 04:33:23;;;;;;;6.68;6.07;;;12.10;99.90;;;;;;6220202;23;20229;-89
2023/05/11 04:35:52;;;;;;;12.55;6.97;;;12.10;99.90;;;;;;6193139;23;20176;-87
2023/05/11 04:38:20;;;;;;;9.40;5.18;;;12.10;99.90;;;;;;6217750;23;20188;-86
2023/05/11 04:40:49;;;;;;;7.63;6.00;;;12.20;99.90;;;;;;6219940;23;20210;-84
2023/05/11 04:43:16;;;;;;;8.90;5.65;;;12.30;99.90;;;;;;6217960;23;20183;-83
2023/05/11 04:45:50;;;;;;;11.30;5.63;;;12.30;99.90;;;;;;6219863;23;20222;-84
2023/05/11 04:48:17;;;;;;;7.25;5.75;;;12.50;99.90;;;;;;6218808;23;20212;-82
2023/05/11 04:50:46;;;;;;;7.15;5.80;;;12.80;99.90;;;;;;6218774;23;20226;-82
2023/05/11 04:53:13;;;;;;;9.57;5.78;;;12.90;99.90;;;;;;6220253;23;20184;-88
2023/05/11 04:55:40;;;;;;;8.02;5.90;;;12.80;99.90;;;;;;6223732;23;20176;-82
2023/05/11 04:58:09;;;;;;;7.32;5.43;;;12.90;99.90;;;;;;6228808;23;20212;-85
2023/05/11 05:00:36;;;;;;;8.30;5.40;;;13.00;99.90;;;;;;6203320;23;20198;-89
2023/05/11 05:03:03;;;;;;;11.35;7.25;;;13.00;99.90;;;;;;6226918;23;20262;-85
2023/05/11 05:05:30;;;;;;;9.63;6.82;;;13.20;99.90;;;;;;6221548;23;20651;-87
2023/05/11 05:07:57;;;;;;;10.15;6.13;;;13.30;99.90;;;;;;6220827;23;20231;-84
2023/05/11 05:10:23;;;;;;;8.35;6.22;;;13.20;99.90;;;;;;6220447;23;20183;-82
2023/05/11 05:12:50;;;;;;;12.85;6.72;;;13.20;99.90;;;;;;6220010;23;20639;-87
2023/05/11 05:15:17;;;;;;;8.57;5.65;;;13.40;99.90;;;;;;6193896;23;20187;-88
2023/05/11 05:17:44;;;;;;;7.53;6.40;;;13.40;99.90;;;;;;6223652;23;20182;-90
2023/05/11 05:20:11;;;;;;;7.53;5.90;;;13.50;99.90;;;;;;6224134;23;20175;-84
2023/05/11 05:22:38;;;;;;;7.60;5.65;;;13.60;99.90;;;;;;6196931;23;20223;-88
2023/05/11 05:25:06;;;;;;;5.88;5.38;;;13.60;99.90;;;;;;6197922;23;20183;-83
2023/05/11 05:27:33;;;;;;;9.23;6.90;;;13.80;99.90;;;;;;6225956;23;20226;-90
2023/05/11 05:30:00;;;;;;;8.37;6.07;;;14.00;99.90;;;;;;6226416;23;20223;-87
2023/05/11 05:32:28;;;;;;;12.10;6.73;;;14.40;99.90;;;;;;6223376;23;20474;-84
2023/05/11 05:34:54;;;;;;;10.52;6.40;;;14.40;99.90;;;;;;6224479;23;20403;-88
2023/05/11 05:37:21;;;;;;;9.43;6.80;;;14.40;99.90;;;;;;6224267;23;20183;-79
2023/05/11 05:39:48;;;;;;;11.07;6.23;;;14.30;99.90;;;;;;6224030;23;20405;-82
2023/05/11 05:42:15;;;;;;;7.40;6.03;;;14.60;99.90;;;;;;6224074;23;20451;-83
2023/05/11 05:44:42;;;;;;;11.07;6.60;;;14.90;99.90;;;;;;6198679;23;20390;-85
2023/05/11 05:47:09;;;;;;;10.30;6.43;;;14.90;99.90;;;;;;6223597;23;20384;-83
2023/05/11 05:49:36;;;;;;;8.07;5.23;;;14.70;99.90;;;;;;6225553;23;20479;-79
2023/05/11 05:52:03;;;;;;;9.37;6.60;;;15.00;99.90;;;;;;6196634;23;20396;-79
2023/05/11 05:54:30;;;;;;;9.80;5.30;;;14.80;99.90;;;;;;6223335;23;20427;-83
2023/05/11 05:56:57;;;;;;;7.77;5.47;;;14.90;99.90;;;;;;6224613;23;20436;-84
2023/05/11 05:59:23;;;;;;;8.60;6.60;;;15.20;99.90;;;;;;6223403;23;20405;-83
2023/05/11 06:01:50;;;;;;;7.47;6.67;;;15.40;99.90;;;;;;6223768;23;20387;-80
2023/05/11 06:04:17;;;;;;;9.53;6.30;;;15.80;99.90;;;;;;6222484;23;20446;-85
2023/05/11 06:06:45;;;;;;;11.73;5.70;;;15.80;99.90;;;;;;6196224;23;20822;-81
2023/05/11 06:09:12;;;;;;;14.73;6.93;;;15.90;99.90;;;;;;6223268;23;20459;-84
2023/05/11 06:11:40;;;;;;;7.10;5.50;;;15.80;99.90;;;;;;6223724;23;20401;-84
2023/05/11 06:14:06;;;;;;;13.23;6.63;;;16.10;99.90;;;;;;6223771;23;20459;-80
2023/05/11 06:16:34;;;;;;;7.93;5.33;;;16.30;99.90;;;;;;6222000;23;20393;-82
2023/05/11 06:19:01;;;;;;;7.73;5.73;;;16.40;99.90;;;;;;6223228;23;20444;-85
2023/05/11 06:21:28;;;;;;;7.60;6.63;;;17.00;99.90;;;;;;6221902;23;20375;-82
2023/05/11 06:23:55;;;;;;;8.57;6.70;;;17.10;99.90;;;;;;6222500;23;20378;-84
2023/05/11 06:26:23;;;;;;;7.10;5.40;;;17.00;99.90;;;;;;6195915;23;20401;-81
2023/05/11 06:28:51;;;;;;;7.03;5.60;;;17.00;99.90;;;;;;6222844;23;20437;-84
2023/05/11 06:31:18;;;;;;;6.27;5.77;;;17.60;99.90;;;;;;6196363;23;20867;-83
2023/05/11 06:33:45;;;;;;;17.20;6.87;;;18.30;99.90;;;;;;6223127;23;20447;-81
2023/05/11 06:36:12;;;;;;;9.00;6.70;;;18.60;99.90;;;;;;6224154;23;20442;-83
2023/05/11 06:38:39;;;;;;;7.03;4.90;;;19.00;99.90;;;;;;6228249;23;20771;-86
2023/05/11 06:41:08;;;;;;;8.57;5.97;;;18.80;99.90;;;;;;6234394;23;20710;-81
2023/05/11 06:43:35;;;;;;;8.13;5.50;;;19.50;99.90;;;;;;6228928;23;20368;-83
2023/05/11 06:46:02;;;;;;;10.20;5.83;;;20.00;99.90;;;;;;6223811;23;20371;-84
2023/05/11 06:48:29;;;;;;;10.33;7.17;;;20.20;99.90;;;;;;6220730;23;20423;-86
2023/05/11 06:50:56;;;;;;;6.63;5.70;;;20.60;99.90;;;;;;6222323;23;20398;-84
2023/05/11 06:53:23;;;;;;;6.30;4.73;;;21.20;99.90;;;;;;6221784;23;20375;-85
2023/05/11 06:55:50;;;;;;;6.70;5.30;;;22.10;99.90;;;;;;6196403;23;20389;-82
2023/05/11 06:58:19;;;;;;;8.80;5.47;;;23.20;99.90;;;;;;6222130;23;20403;-84
2023/05/11 07:00:46;;;;;;;7.77;5.33;;;24.20;99.90;;;;;;6222317;23;20404;-84
2023/05/11 07:03:13;;;;;;;13.47;6.57;;;23.30;99.90;;;;;;6220256;23;20469;-81
2023/05/11 07:05:40;;;;;;;5.67;5.17;;;22.30;99.90;;;;;;6221625;23;20401;-85
2023/05/11 07:08:06;;;;;;;7.67;5.50;;;22.20;99.90;;;;;;6222825;23;20399;-87
2023/05/11 07:10:34;;;;;;;9.40;6.80;;;22.40;99.90;;;;;;6221074;23;20511;-85
2023/05/11 07:13:01;;;;;;;6.23;5.73;;;22.20;99.90;;;;;;6221602;23;20394;-82
2023/05/11 07:15:29;;;;;;;11.47;6.20;;;22.50;99.90;;;;;;6221689;23;20401;-83
2023/05/11 07:17:56;;;;;;;6.40;4.93;;;23.50;99.90;;;;;;6223408;23;20440;-82
2023/05/11 07:20:23;;;;;;;5.80;5.30;;;24.00;99.90;;;;;;6221139;23;20427;-88
2023/05/11 07:22:50;;;;;;;5.03;4.53;;;25.20;98.90;;;;;;6221245;23;20408;-81
2023/05/11 07:25:17;;;;;;;8.50;5.90;;;26.10;95.20;;;;;;6219494;23;20417;-82
2023/05/11 07:27:44;;;;;;;6.70;5.17;;;26.20;94.10;;;;;;6221070;23;20394;-81
2023/05/11 07:30:12;;;;;;;12.90;5.37;;;26.20;95.40;;;;;;6219981;23;20473;-83
2023/05/11 07:32:39;;;;;;;6.80;5.87;;;25.10;96.10;;;;;;6195040;23;20434;-84
2023/05/11 07:35:06;;;;;;;9.13;5.27;;;25.70;95.50;;;;;;6194455;23;20405;-83
2023/05/11 07:37:33;;;;;;;5.60;5.07;;;24.80;94.80;;;;;;6228576;23;20417;-83
2023/05/11 07:40:00;;;;;;;8.67;6.30;;;23.80;98.50;;;;;;6240818;23;20437;-81
2023/05/11 07:42:27;;;;;;;6.57;5.87;;;24.00;98.00;;;;;;6242143;23;20416;-82
2023/05/11 07:44:55;;;;;;;13.90;6.40;;;24.10;99.70;;;;;;6235271;23;20405;-84
2023/05/11 07:47:22;;;;;;;4.77;4.23;;;25.50;96.10;;;;;;6229275;23;20388;-82
2023/05/11 07:49:49;;;;;;;7.87;5.17;;;28.00;88.70;;;;;;6235405;23;20603;-83
2023/05/11 07:52:16;;;;;;;4.67;3.60;;;29.00;81.10;;;;;;6235667;23;20410;-88
2023/05/11 07:54:43;;;;;;;6.27;3.83;;;30.50;69.60;;;;;;6224976;23;20460;-85
2023/05/11 07:57:12;;;;;;;3.70;3.33;;;31.80;63.50;;;;;;6220975;23;20444;-83
2023/05/11 07:59:39;;;;;;;4.67;4.27;;;31.20;62.40;;;;;;6222889;23;20455;-87
2023/05/11 08:02:08;;;;;;;4.30;4.00;;;31.90;59.70;;;;;;6222569;23;20749;-85
2023/05/11 08:04:39;;;;;;;7.53;3.60;;;31.70;59.60;;;;;;6221826;23;20512;-81
2023/05/11 08:07:06;;;;;;;5.10;3.80;;;31.40;58.30;;;;;;6220154;23;20780;-81
2023/05/11 08:09:33;;;;;;;5.57;3.13;;;31.60;58.50;;;;;;6222575;23;20710;-82
2023/05/11 08:12:01;;;;;;;4.30;3.60;;;31.20;56.60;;;;;;6221566;23;20398;-83
2023/05/11 08:14:28;;;;;;;4.40;3.63;;;31.70;56.90;;;;;;6195583;23;20397;-88
2023/05/11 08:16:55;;;;;;;5.03;3.90;;;31.80;55.20;;;;;;6197491;23;20472;-86
2023/05/11 08:19:22;;;;;;;4.10;3.70;;;31.70;55.00;;;;;;6224161;23;20461;-85
2023/05/11 08:21:48;;;;;;;4.00;3.60;;;32.30;54.10;;;;;;6221751;23;20401;-82
2023/05/11 08:24:15;;;;;;;5.90;3.50;;;32.30;53.50;;;;;;6221426;23;20614;-84
2023/05/11 08:26:42;;;;;;;5.73;3.87;;;30.20;56.20;;;;;;6220698;23;20594;-85
2023/05/11 08:29:11;;;;;;;4.00;3.60;;;29.00;58.90;;;;;;6220390;23;20577;-81
2023/05/11 08:31:39;;;;;;;5.17;4.13;;;28.60;59.60;;;;;;6222210;23;20425;-86
2023/05/11 08:34:07;;;;;;;4.00;3.63;;;28.50;60.40;;;;;;6195471;23;20432;-82
2023/05/11 08:36:45;;;;;;;3.97;3.50;;;28.30;61.70;;;;;;6220641;23;20385;-87
2023/05/11 08:39:14;;;;;;;4.80;3.77;;;30.10;60.00;;;;;;6194382;23;20437;-82
2023/05/11 08:42:01;;;;;;;3.87;3.57;;;31.80;56.50;;;;;;6221911;23;20385;-85
2023/05/11 08:44:31;;;;;;;5.23;3.97;;;32.60;53.80;;;;;;6221398;23;20708;-83
2023/05/11 08:46:59;;;;;;;5.30;4.80;;;31.40;55.00;;;;;;6221224;23;20409;-86
2023/05/11 08:49:46;;;;;;;4.10;3.70;;;30.00;56.80;;;;;;6223335;23;20409;-86
2023/05/11 08:52:15;;;;;;;6.33;4.10;;;27.90;61.20;;;;;;6221504;23;20833;-84
2023/05/11 08:54:41;;;;;;;10.53;4.67;;;26.80;66.20;;;;;;6224731;23;20451;-84
2023/05/11 08:57:09;;;;;;;6.97;4.43;;;26.70;69.00;;;;;;6230716;23;20392;-82
2023/05/11 08:59:37;;;;;;;4.60;4.20;;;28.20;65.30;;;;;;6237899;23;20427;-82
2023/05/11 09:02:06;;;;;;;4.20;3.73;;;30.40;59.40;;;;;;6239628;23;20467;-85
2023/05/11 09:04:35;;;;;;;4.20;3.90;;;31.30;58.70;;;;;;6227640;23;20421;-84
2023/05/11 09:07:02;;;;;;;5.67;3.33;;;31.70;56.50;;;;;;6221383;23;20469;-82
2023/05/11 09:09:29;;;;;;;6.40;3.87;;;30.90;58.30;;;;;;6221293;23;20397;-87
2023/05/11 09:11:57;;;;;;;4.13;3.83;;;29.40;60.50;;;;;;6220798;23;20468;-83
2023/05/11 09:14:24;;;;;;;5.53;4.20;;;28.40;63.50;;;;;;6222337;23;20401;-86
2023/05/11 09:16:53;;;;;;;6.60;4.77;;;28.60;62.80;;;;;;6223027;23;20433;-83
2023/05/11 09:19:20;;;;;;;5.70;4.63;;;28.40;62.80;;;;;;6220100;23;20528;-81
2023/05/11 09:21:47;;;;;;;7.33;4.50;;;27.90;63.70;;;;;;6221434;23;20469;-85
2023/05/11 09:24:14;;;;;;;4.80;4.20;;;27.50;67.60;;;;;;6194220;23;20436;-85
2023/05/11 09:26:41;;;;;;;4.80;4.17;;;27.40;70.60;;;;;;6195377;23;20397;-84
2023/05/11 09:29:08;;;;;;;4.73;4.40;;;26.60;70.00;;;;;;6221944;23;20397;-88
2023/05/11 09:31:38;;;;;;;7.37;4.00;;;25.70;75.70;;;;;;6220394;23;20833;-83
2023/05/11 09:34:11;;;;;;;12.17;4.90;;;25.20;78.70;;;;;;6224077;23;20442;-85
2023/05/11 09:36:38;;;;;;;9.10;3.53;;;25.80;77.90;;;;;;6194587;23;20463;-86
2023/05/11 09:39:06;;;;;;;9.77;4.83;;;26.70;77.50;;;;;;6196407;23;20648;-85
2023/05/11 09:41:32;;;;;;;5.47;4.90;;;27.00;75.40;;;;;;6221424;23;20443;-83
2023/05/11 09:44:11;;;;;;;7.17;4.27;;;26.90;74.10;;;;;;6222035;23;20405;-84
2023/05/11 09:46:40;;;;;;;4.40;4.00;;;24.80;79.60;;;;;;6221923;23;20709;-83
2023/05/11 09:49:07;;;;;;;6.37;4.90;;;24.00;85.70;;;;;;6189716;23;20460;-83
2023/05/11 09:51:36;;;;;;;5.17;4.63;;;23.30;88.30;;;;;;6191862;23;20413;-85
2023/05/11 09:54:20;;;;;;;3.60;3.30;;;22.70;90.60;;;;;;6192330;23;20452;-81
2023/05/11 09:56:48;;;;;;;3.67;3.37;;;22.00;91.30;;;;;;6191371;23;20731;-80
2023/05/11 09:59:35;;;;;;;6.83;4.13;;;21.90;91.20;;;;;;6191728;23;20434;-83
2023/05/11 10:02:22;;;;;;;4.57;4.17;;;21.70;93.50;;;;;;6189777;23;20383;-83
2023/05/11 10:04:50;;;;;;;4.53;3.53;;;21.90;94.30;;;;;;6193363;23;20373;-84
2023/05/11 10:07:27;;;;;;;4.70;4.20;;;22.20;94.40;;;;;;6191792;23;20373;-85
2023/05/11 10:09:56;;;;;;;5.00;3.47;;;22.40;93.80;;;;;;6194160;23;20352;-85
2023/05/11 10:12:24;;;;;;;2.93;2.63;;;23.00;90.40;;;;;;6191207;23;20436;-84
2023/05/11 10:14:59;;;;;;;5.63;5.03;;;23.80;90.00;;;;;;6193277;23;20984;-85
2023/05/11 10:17:27;;;;;;;5.20;2.80;;;24.50;84.90;;;;;;6193771;23;20758;-82
2023/05/11 10:19:55;;;;;;;5.00;3.53;;;24.80;83.70;;;;;;6194702;23;20526;-82
2023/05/11 10:22:27;;;;;;;4.20;3.90;;;24.20;87.70;;;;;;6193980;23;20398;-85
2023/05/11 10:24:58;;;;;;;4.13;3.80;;;23.50;90.20;;;;;;6194141;23;20377;-83
2023/05/11 10:27:26;;;;;;;5.80;3.30;;;23.10;90.40;;;;;;6194616;23;20425;-83
2023/05/11 10:29:54;;;;;;;9.83;4.43;;;23.20;90.60;;;;;;6194882;23;20402;-84
2023/05/11 10:32:21;;;;;;;5.20;3.77;;;23.20;90.80;;;;;;6195025;23;20792;-83
2023/05/11 10:34:51;;;;;;;3.50;2.83;;;22.50;92.90;;;;;;6195050;23;20408;-84
2023/05/11 10:37:19;;;;;;;2.40;2.20;;;22.30;88.70;;;;;;6196254;23;20394;-83
2023/05/11 10:39:48;;;;;;;3.60;2.50;;;22.50;83.90;;;;;;6206296;23;20421;-85
2023/05/11 10:42:42;;;;;;;3.13;2.40;;;22.70;81.60;;;;;;6209714;23;20422;-83
2023/05/11 10:45:46;;;;;;;2.17;1.70;;;23.00;78.00;;;;;;6210840;23;20374;-85
2023/05/11 10:48:40;;;;;;;2.97;2.67;;;23.10;73.30;;;;;;6227328;23;20388;-86
2023/05/11 10:51:51;;;;;;;3.50;2.17;;;23.10;73.50;;;;;;6214939;23;20378;-85
2023/05/11 10:54:39;;;;;;;2.30;2.20;;;23.00;72.30;;;;;;6242561;23;20385;-83
2023/05/11 10:57:39;;;;;;;1.80;1.70;;;22.60;72.50;;;;;;6240844;23;20379;-83
2023/05/11 11:00:47;;;;;;;3.17;2.90;;;22.80;71.20;;;;;;6215631;23;20421;-82
2023/05/11 11:03:19;;;;;;;4.37;3.13;;;23.00;68.40;;;;;;6223905;23;20397;-85
2023/05/11 11:05:46;;;;;;;2.90;2.70;;;23.30;71.50;;;;;;6224077;23;20374;-85
2023/05/11 11:08:14;;;;;;;2.77;2.57;;;23.50;69.20;;;;;;6223905;23;20405;-86
2023/05/11 11:10:44;;;;;;;2.10;2.00;;;23.80;69.70;;;;;;6224084;23;20710;-85
2023/05/11 11:13:16;;;;;;;3.07;2.60;;;24.00;64.60;;;;;;6222922;23;20373;-85
2023/05/11 11:15:52;;;;;;;3.20;1.70;;;24.00;61.30;;;;;;6197461;23;20400;-86
2023/05/11 11:18:27;;;;;;;2.40;1.90;;;24.00;59.10;;;;;;6223728;23;20419;-87
2023/05/11 11:20:57;;;;;;;4.70;2.53;;;24.00;61.60;;;;;;6224180;23;20428;-85
2023/05/11 11:23:40;;;;;;;2.37;2.20;;;24.50;60.30;;;;;;6232637;23;20378;-82
2023/05/11 11:26:15;;;;;;;3.27;1.80;;;24.90;58.20;;;;;;6241608;23;20381;-84
2023/05/11 11:28:57;;;;;;;2.40;2.20;;;25.10;57.60;;;;;;6241112;23;20385;-84
2023/05/11 11:31:29;;;;;;;3.67;2.77;;;24.60;60.40;;;;;;6225327;23;20397;-89
2023/05/11 11:33:59;;;;;;;2.40;1.90;;;24.20;62.60;;;;;;6223197;23;20656;-85
2023/05/11 11:37:12;;;;;;;2.40;2.20;;;23.60;59.90;;;;;;6222556;23;20459;-85
2023/05/11 11:39:42;;;;;;;2.70;2.50;;;23.70;61.30;;;;;;6192368;23;20436;-86
2023/05/11 11:42:33;;;;;;;3.67;2.30;;;24.00;62.80;;;;;;6220825;23;20424;-84
2023/05/11 11:45:31;;;;;;;2.80;2.60;;;24.10;61.70;;;;;;6195609;23;20401;-84
2023/05/11 11:48:14;;;;;;;3.57;2.40;;;23.80;66.50;;;;;;6224001;23;20411;-83
2023/05/11 11:50:43;;;;;;;6.00;2.47;;;23.90;63.00;;;;;;6196934;23;20637;-86
2023/05/11 11:53:40;;;;;;;2.90;2.60;;;23.90;66.50;;;;;;6222692;23;20374;-83
2023/05/11 11:56:07;;;;;;;3.60;3.17;;;23.50;68.70;;;;;;6198184;23;20397;-87
2023/05/11 11:58:41;;;;;;;3.30;2.60;;;23.00;70.00;;;;;;6222777;23;20404;-83
2023/05/11 12:01:13;;;;;;;5.60;3.40;;;22.90;70.50;;;;;;6223184;23;20433;-85
2023/05/11 12:03:42;;;;;;;5.60;2.50;;;22.90;70.50;;;;;;6223433;23;20838;-83
2023/05/11 12:06:10;;;;;;;3.00;2.70;;;22.80;71.20;;;;;;6237025;23;20432;-82
2023/05/11 12:08:49;;;;;;;3.13;2.50;;;22.60;72.90;;;;;;6215772;23;20364;-85
2023/05/11 12:11:17;;;;;;;4.10;3.03;;;22.30;75.00;;;;;;6215804;23;20464;-83
2023/05/11 12:13:45;;;;;;;3.77;2.50;;;22.40;75.70;;;;;;6202634;23;20456;-86
2023/05/11 12:16:17;;;;;;;3.03;2.83;;;22.60;74.00;;;;;;6224289;23;20404;-84
2023/05/11 12:18:58;;;;;;;2.40;2.20;;;22.60;74.40;;;;;;6222686;23;20781;-84
2023/05/11 12:21:32;;;;;;;4.03;3.30;;;22.30;74.80;;;;;;6223961;23;20421;-86
2023/05/11 12:24:00;;;;;;;5.33;3.27;;;22.00;75.00;;;;;;6223916;23;20364;-85
2023/05/11 12:26:28;;;;;;;5.10;3.63;;;22.20;74.00;;;;;;6223718;23;20428;-84
2023/05/11 12:29:12;;;;;;;2.97;2.60;;;22.30;75.90;;;;;;6223454;23;20363;-83
2023/05/11 12:31:41;;;;;;;3.10;2.80;;;22.00;75.30;;;;;;6223866;23;20378;-86
2023/05/11 12:34:16;;;;;;;3.43;2.73;;;21.60;78.30;;;;;;6197563;23;20444;-87
2023/05/11 12:36:47;;;;;;;3.00;2.60;;;21.70;79.00;;;;;;6223722;23;20468;-89
2023/05/11 12:39:19;;;;;;;4.00;2.80;;;21.70;79.00;;;;;;6226370;23;20374;-83
2023/05/11 12:41:47;;;;;;;3.40;3.03;;;21.60;78.90;;;;;;6196641;23;20463;-84
2023/05/11 12:44:16;;;;;;;8.33;3.40;;;21.60;79.10;;;;;;6222489;23;20590;-83
2023/05/11 12:46:48;;;;;;;11.90;3.50;;;21.70;78.70;;;;;;6224278;23;20404;-82
2023/05/11 12:49:16;;;;;;;5.90;2.90;;;21.60;79.80;;;;;;6224418;23;20420;-87
2023/05/11 12:52:12;;;;;;;3.07;2.80;;;21.60;82.80;;;;;;6223505;23;20380;-85
2023/05/11 12:54:42;;;;;;;5.43;3.10;;;21.30;88.60;;;;;;6235705;23;20345;-83
2023/05/11 12:57:22;;;;;;;5.40;3.40;;;21.20;90.70;;;;;;6238706;23;20456;-82
2023/05/11 13:00:05;;;;;;;5.17;2.97;;;21.10;90.50;;;;;;6209957;23;20348;-89
2023/05/11 13:02:33;;;;;;;3.90;3.20;;;21.00;92.00;;;;;;6225534;23;20340;-84